createdAt,value
2023-03-06T00:01:18.378Z,3.18
2023-03-06T00:04:42.415Z,2.86
2023-03-06T00:08:04.896Z,2.80
2023-03-06T00:11:27.423Z,3.13
2023-03-06T00:14:49.940Z,3.36
2023-03-06T00:18:12.478Z,2.90
2023-03-06T00:21:36.356Z,2.93
2023-03-06T00:24:59.652Z,3.08
2023-03-06T00:28:21.909Z,3.03
2023-03-06T00:31:47.980Z,3.30
2023-03-06T00:35:11.160Z,2.88
2023-03-06T00:38:35.709Z,3.02
2023-03-06T00:41:58.182Z,2.96
2023-03-06T00:45:21.666Z,2.96
2023-03-06T00:48:44.861Z,2.87
2023-03-06T00:52:07.949Z,2.87
2023-03-06T00:55:33.540Z,2.87
2023-03-06T00:58:56.329Z,2.80
2023-03-06T01:02:20.855Z,2.69
2023-03-06T01:05:44.007Z,2.94
2023-03-06T01:09:06.274Z,3.44
2023-03-06T01:12:30.489Z,3.07
2023-03-06T01:15:52.789Z,3.01
2023-03-06T01:19:16.250Z,3.37
2023-03-06T01:22:38.575Z,3.08
2023-03-06T01:26:01.254Z,2.96
2023-03-06T01:29:26.541Z,3.48
2023-03-06T01:32:49.384Z,3.22
2023-03-06T01:36:13.324Z,2.96
2023-03-06T01:39:36.307Z,2.49
2023-03-06T01:42:58.839Z,3.23
2023-03-06T01:46:30.104Z,2.81
2023-03-06T01:49:52.709Z,2.92
2023-03-06T01:53:15.451Z,2.44
2023-03-06T01:56:38.059Z,3.01
2023-03-06T02:00:03.010Z,2.92
2023-03-06T02:03:36.960Z,3.20
2023-03-06T02:07:01.634Z,3.02
2023-03-06T02:10:26.994Z,3.17
2023-03-06T02:13:49.695Z,3.00
2023-03-06T02:17:14.908Z,3.09
2023-03-06T02:20:40.874Z,2.77
2023-03-06T02:24:09.988Z,2.62
2023-03-06T02:27:33.817Z,2.93
2023-03-06T02:30:57.049Z,2.88
2023-03-06T02:34:47.478Z,3.18
2023-03-06T02:38:12.637Z,3.14
2023-03-06T02:41:35.927Z,3.08
2023-03-06T02:45:01.551Z,3.14
2023-03-06T02:48:24.021Z,3.33
2023-03-06T02:51:47.220Z,3.22
2023-03-06T02:55:13.040Z,3.28
2023-03-06T02:58:36.302Z,3.53
2023-03-06T03:02:00.694Z,3.39
2023-03-06T03:05:23.605Z,3.30
2023-03-06T03:08:46.656Z,3.01
2023-03-06T03:12:10.193Z,3.35
2023-03-06T03:15:32.858Z,3.55
2023-03-06T03:18:57.296Z,3.36
2023-03-06T03:22:21.221Z,3.68
2023-03-06T03:25:43.936Z,3.40
2023-03-06T03:29:06.640Z,3.53
2023-03-06T03:32:29.347Z,3.11
2023-03-06T03:35:59.050Z,3.36
2023-03-06T03:39:22.312Z,3.59
2023-03-06T03:42:44.726Z,3.20
2023-03-06T03:46:07.888Z,3.30
2023-03-06T03:49:30.195Z,3.17
2023-03-06T03:52:55.578Z,3.25
2023-03-06T03:56:18.031Z,3.23
2023-03-06T03:59:41.498Z,3.34
2023-03-06T04:03:04.450Z,3.61
2023-03-06T04:06:28.263Z,3.26
2023-03-06T04:09:52.176Z,3.38
2023-03-06T04:13:15.357Z,3.71
2023-03-06T04:16:37.848Z,3.45
2023-03-06T04:20:02.113Z,3.09
2023-03-06T04:23:28.011Z,3.13
2023-03-06T04:26:52.215Z,3.51
2023-03-06T04:30:15.429Z,3.75
2023-03-06T04:33:38.127Z,3.38
2023-03-06T04:37:01.283Z,3.57
2023-03-06T04:40:27.431Z,3.12
2023-03-06T04:43:51.619Z,3.17
2023-03-06T04:47:14.342Z,3.04
2023-03-06T04:50:38.081Z,3.55
2023-03-06T04:54:01.237Z,3.49
2023-03-06T04:57:23.931Z,3.52
2023-03-06T05:00:48.274Z,3.34
2023-03-06T05:04:10.881Z,3.02
2023-03-06T05:07:33.937Z,3.17
2023-03-06T05:10:57.230Z,3.57
2023-03-06T05:14:20.177Z,3.68
2023-03-06T05:17:44.105Z,3.48
2023-03-06T05:21:07.200Z,3.01
2023-03-06T05:24:29.830Z,3.07
2023-03-06T05:27:52.426Z,3.18
2023-03-06T05:31:14.921Z,3.07
2023-03-06T05:34:40.294Z,3.37
2023-03-06T05:38:03.018Z,2.88
2023-03-06T05:41:25.550Z,2.90
2023-03-06T05:44:48.292Z,2.89
2023-03-06T05:48:12.188Z,3.12
2023-03-06T05:51:35.787Z,2.92
2023-03-06T05:55:01.333Z,2.87
2023-03-06T05:58:23.640Z,3.27
2023-03-06T06:01:46.226Z,2.86
2023-03-06T06:05:11.783Z,3.04
2023-03-06T06:08:36.731Z,3.05
2023-03-06T06:12:00.573Z,3.10
2023-03-06T06:15:23.070Z,3.02
2023-03-06T06:18:46.110Z,3.03
2023-03-06T06:22:08.417Z,2.95
2023-03-06T06:25:32.700Z,3.08
2023-03-06T06:28:54.980Z,3.22
2023-03-06T06:32:17.598Z,3.26
2023-03-06T06:35:40.200Z,3.27
2023-03-06T06:39:03.609Z,3.56
2023-03-06T06:42:33.218Z,3.54
2023-03-06T06:46:24.311Z,3.54
2023-03-06T06:49:42.838Z,3.44
2023-03-06T06:53:05.871Z,3.40
2023-03-06T06:56:29.273Z,3.49
2023-03-06T06:59:54.256Z,3.61
2023-03-06T07:03:16.907Z,3.62
2023-03-06T07:06:39.898Z,3.70
2023-03-06T07:10:02.878Z,3.68
2023-03-06T07:13:26.038Z,3.43
2023-03-06T07:16:52.014Z,3.71
2023-03-06T07:20:14.956Z,3.62
2023-03-06T07:23:38.079Z,3.50
2023-03-06T07:27:00.755Z,3.28
2023-03-06T07:30:23.429Z,3.42
2023-03-06T07:33:47.668Z,3.78
2023-03-06T07:37:09.987Z,3.96
2023-03-06T07:40:32.445Z,3.93
2023-03-06T07:43:54.801Z,3.93
2023-03-06T07:47:17.714Z,4.17
2023-03-06T07:50:42.014Z,4.12
2023-03-06T07:54:04.831Z,4.28
2023-03-06T07:57:27.172Z,4.44
2023-03-06T08:00:49.858Z,4.29
2023-03-06T08:04:12.656Z,4.40
2023-03-06T08:07:36.487Z,4.51
2023-03-06T08:10:59.192Z,4.53
2023-03-06T08:14:21.812Z,4.71
2023-03-06T08:17:44.650Z,5.10
2023-03-06T08:21:07.949Z,5.08
2023-03-06T08:24:32.265Z,5.12
2023-03-06T08:27:54.732Z,5.24
2023-03-06T08:31:25.387Z,5.83
2023-03-06T08:34:48.032Z,6.17
2023-03-06T08:38:10.593Z,6.26
2023-03-06T08:41:35.131Z,5.94
2023-03-06T08:44:57.925Z,6.07
2023-03-06T08:48:20.612Z,6.15
2023-03-06T08:51:43.753Z,6.17
2023-03-06T08:55:07.300Z,6.38
2023-03-06T08:58:32.026Z,6.76
2023-03-06T09:01:54.738Z,6.43
2023-03-06T09:05:17.826Z,7.02
2023-03-06T09:08:43.105Z,7.99
2023-03-06T09:12:06.225Z,7.93
2023-03-06T09:15:30.384Z,8.27
2023-03-06T09:18:54.117Z,8.94
2023-03-06T09:22:16.336Z,9.41
2023-03-06T09:25:39.051Z,10.02
2023-03-06T09:29:01.681Z,10.21
2023-03-06T09:32:26.229Z,11.54
2023-03-06T09:35:50.987Z,11.18
2023-03-06T09:39:13.618Z,10.18
2023-03-06T09:42:36.239Z,10.27
2023-03-06T09:45:59.475Z,10.47
2023-03-06T09:49:39.536Z,10.34
2023-03-06T09:53:23.945Z,10.38
2023-03-06T09:56:48.652Z,11.01
2023-03-06T10:00:14.703Z,10.71
2023-03-06T10:03:39.432Z,10.32
2023-03-06T10:07:05.955Z,10.04
2023-03-06T10:10:30.033Z,9.64
2023-03-06T10:13:54.585Z,9.02
2023-03-06T10:17:18.194Z,8.94
2023-03-06T10:20:44.853Z,8.90
2023-03-06T10:24:17.887Z,9.08
2023-03-06T10:27:44.263Z,8.89
2023-03-06T10:31:09.408Z,8.33
2023-03-06T10:34:32.801Z,8.45
2023-03-06T10:38:01.060Z,8.54
2023-03-06T10:41:29.552Z,8.64
2023-03-06T10:45:08.459Z,8.21
2023-03-06T10:48:32.859Z,7.83
2023-03-06T10:51:59.947Z,7.98
2023-03-06T10:55:27.926Z,7.83
2023-03-06T10:59:05.706Z,8.01
2023-03-06T11:02:30.478Z,8.01
2023-03-06T11:05:58.011Z,7.92
2023-03-06T11:09:23.392Z,8.02
2023-03-06T11:12:57.652Z,7.97
2023-03-06T11:16:25.641Z,7.95
2023-03-06T11:19:48.483Z,8.12
2023-03-06T11:23:15.970Z,8.36
2023-03-06T11:26:42.636Z,8.30
2023-03-06T11:30:08.275Z,8.49
2023-03-06T11:33:35.488Z,8.46
2023-03-06T11:36:59.630Z,8.41
2023-03-06T11:40:24.979Z,8.29
2023-03-06T11:43:52.373Z,8.27
2023-03-06T11:47:18.011Z,8.37
2023-03-06T11:50:43.287Z,8.65
2023-03-06T11:54:06.226Z,8.20
2023-03-06T11:57:32.892Z,8.14
2023-03-06T12:00:57.975Z,8.24
2023-03-06T12:04:36.916Z,8.23
2023-03-06T12:08:04.420Z,8.23
2023-03-06T12:11:32.682Z,8.29
2023-03-06T12:15:06.921Z,8.30
2023-03-06T12:18:41.225Z,8.53
2023-03-06T12:22:16.067Z,8.74
2023-03-06T12:25:40.657Z,8.78
2023-03-06T12:29:09.549Z,9.04
2023-03-06T12:32:41.586Z,8.75
2023-03-06T12:36:11.567Z,8.34
2023-03-06T12:39:42.157Z,8.37
2023-03-06T12:43:43.578Z,8.87
2023-03-06T12:47:10.057Z,8.68
2023-03-06T12:50:33.362Z,8.42
2023-03-06T12:53:56.192Z,8.20
2023-03-06T12:57:18.587Z,8.12
2023-03-06T13:01:04.301Z,8.27
2023-03-06T13:04:34.263Z,8.47
2023-03-06T13:08:14.070Z,8.02
2023-03-06T13:12:15.411Z,8.16
2023-03-06T13:15:39.886Z,8.50
2023-03-06T13:19:05.755Z,8.11
2023-03-06T13:22:30.508Z,8.10
2023-03-06T13:25:53.036Z,8.10
2023-03-06T13:29:49.065Z,8.12
2023-03-06T13:33:48.120Z,8.13
2023-03-06T13:37:46.674Z,8.06
2023-03-06T13:41:38.290Z,8.31
2023-03-06T13:45:07.693Z,8.41
2023-03-06T13:48:44.831Z,8.35
2023-03-06T13:52:09.769Z,8.15
2023-03-06T13:55:37.256Z,8.12
2023-03-06T13:59:12.587Z,8.16
2023-03-06T14:02:49.771Z,8.15
2023-03-06T14:06:53.854Z,8.18
2023-03-06T14:10:23.555Z,8.16
2023-03-06T14:13:49.737Z,8.21
2023-03-06T14:17:19.340Z,8.22
2023-03-06T14:20:43.463Z,8.36
2023-03-06T14:24:06.308Z,8.31
2023-03-06T14:27:43.923Z,8.22
2023-03-06T14:31:08.138Z,8.14
2023-03-06T14:34:31.750Z,8.12
2023-03-06T14:37:55.617Z,8.18
2023-03-06T14:41:26.409Z,8.26
2023-03-06T14:44:49.079Z,8.26
2023-03-06T14:48:15.988Z,8.28
2023-03-06T14:51:41.672Z,8.41
2023-03-06T14:55:04.816Z,8.32
2023-03-06T14:58:32.365Z,8.43
2023-03-06T15:01:58.881Z,8.35
2023-03-06T15:05:24.272Z,8.24
2023-03-06T15:08:48.722Z,8.05
2023-03-06T15:12:34.968Z,7.83
2023-03-06T15:15:59.693Z,7.80
2023-03-06T15:19:22.515Z,7.80
2023-03-06T15:22:49.029Z,7.95
2023-03-06T15:26:23.157Z,7.68
2023-03-06T15:29:45.674Z,7.41
2023-03-06T15:33:18.338Z,7.26
2023-03-06T15:36:42.148Z,7.24
2023-03-06T15:40:09.564Z,7.19
2023-03-06T15:43:35.012Z,7.09
2023-03-06T15:47:07.773Z,7.02
2023-03-06T15:50:31.806Z,7.17
2023-03-06T15:53:57.210Z,6.77
2023-03-06T15:57:30.771Z,6.79
2023-03-06T16:00:53.639Z,6.93
2023-03-06T16:04:17.436Z,7.09
2023-03-06T16:07:40.314Z,7.07
2023-03-06T16:11:03.776Z,6.86
2023-03-06T16:14:28.128Z,6.81
2023-03-06T16:17:51.016Z,6.30
2023-03-06T16:21:13.708Z,6.40
2023-03-06T16:24:37.287Z,6.19
2023-03-06T16:28:01.328Z,6.06
2023-03-06T16:31:28.222Z,5.88
2023-03-06T16:34:51.835Z,5.77
2023-03-06T16:38:16.830Z,5.48
2023-03-06T16:41:40.069Z,5.42
2023-03-06T16:45:03.463Z,5.27
2023-03-06T16:48:27.501Z,5.23
2023-03-06T16:51:50.895Z,5.21
2023-03-06T16:55:13.785Z,5.18
2023-03-06T16:58:37.454Z,5.18
2023-03-06T17:02:00.388Z,5.07
2023-03-06T17:05:26.591Z,5.17
2023-03-06T17:08:49.935Z,5.24
2023-03-06T17:12:13.826Z,5.13
2023-03-06T17:15:38.304Z,5.24
2023-03-06T17:19:02.506Z,5.28
2023-03-06T17:22:28.396Z,5.36
2023-03-06T17:25:52.104Z,5.55
2023-03-06T17:29:15.563Z,5.08
2023-03-06T17:32:41.652Z,5.18
2023-03-06T17:36:05.341Z,5.01
2023-03-06T17:39:32.752Z,5.38
2023-03-06T17:42:56.714Z,5.05
2023-03-06T17:46:20.458Z,5.09
2023-03-06T17:49:44.253Z,4.99
2023-03-06T17:53:08.948Z,5.25
2023-03-06T17:56:36.265Z,5.11
2023-03-06T18:00:00.772Z,5.21
2023-03-06T18:03:24.800Z,4.73
2023-03-06T18:06:49.227Z,4.85
2023-03-06T18:10:14.699Z,4.94
2023-03-06T18:13:41.487Z,4.83
2023-03-06T18:17:06.473Z,4.79
2023-03-06T18:20:31.425Z,4.65
2023-03-06T18:23:55.462Z,4.63
2023-03-06T18:27:21.698Z,4.66
2023-03-06T18:30:47.978Z,4.69
2023-03-06T18:34:14.050Z,4.59
2023-03-06T18:37:39.501Z,4.66
2023-03-06T18:41:04.033Z,4.77
2023-03-06T18:44:28.596Z,4.68
2023-03-06T18:48:06.468Z,5.06
2023-03-06T18:51:31.875Z,4.83
2023-03-06T18:54:57.027Z,4.77
2023-03-06T18:58:21.665Z,4.82
2023-03-06T19:01:45.936Z,4.48
2023-03-06T19:05:14.322Z,4.72
2023-03-06T19:08:39.428Z,4.50
2023-03-06T19:12:05.217Z,4.34
2023-03-06T19:15:30.464Z,4.23
2023-03-06T19:18:55.775Z,4.35
2023-03-06T19:22:23.761Z,4.43
2023-03-06T19:25:57.996Z,4.33
2023-03-06T19:29:24.187Z,4.44
2023-03-06T19:32:48.758Z,4.35
2023-03-06T19:36:14.454Z,4.43
2023-03-06T19:39:40.682Z,4.44
2023-03-06T19:43:06.301Z,4.77
2023-03-06T19:46:32.540Z,4.75
2023-03-06T19:49:59.146Z,4.96
2023-03-06T19:53:26.637Z,4.50
2023-03-06T19:56:53.013Z,4.35
2023-03-06T20:00:17.842Z,4.84
2023-03-06T20:03:42.100Z,4.07
2023-03-06T20:07:09.133Z,3.86
2023-03-06T20:10:39.177Z,3.76
2023-03-06T20:14:06.181Z,4.03
2023-03-06T20:17:30.067Z,4.21
2023-03-06T20:21:00.760Z,4.20
2023-03-06T20:24:26.115Z,4.19
2023-03-06T20:27:53.437Z,4.09
2023-03-06T20:31:20.986Z,3.76
2023-03-06T20:34:45.787Z,3.77
2023-03-06T20:38:10.407Z,3.82
2023-03-06T20:41:35.290Z,3.67
2023-03-06T20:45:03.055Z,3.82
2023-03-06T20:48:29.168Z,3.83
2023-03-06T20:51:53.109Z,3.70
2023-03-06T20:55:18.597Z,3.63
2023-03-06T20:58:43.117Z,3.58
2023-03-06T21:02:06.980Z,3.61
2023-03-06T21:05:33.051Z,3.68
2023-03-06T21:08:56.578Z,3.79
2023-03-06T21:12:19.735Z,3.90
2023-03-06T21:15:43.312Z,4.45
2023-03-06T21:19:10.211Z,4.19
2023-03-06T21:22:34.851Z,4.50
2023-03-06T21:25:58.354Z,4.23
2023-03-06T21:29:21.867Z,4.40
2023-03-06T21:32:44.712Z,4.77
2023-03-06T21:36:10.918Z,4.20
2023-03-06T21:39:35.296Z,3.97
2023-03-06T21:42:58.036Z,4.32
2023-03-06T21:46:20.778Z,4.77
2023-03-06T21:49:45.624Z,4.63
2023-03-06T21:53:08.577Z,4.47
2023-03-06T21:56:33.654Z,4.11
2023-03-06T21:59:57.058Z,4.21
2023-03-06T22:03:19.713Z,4.14
2023-03-06T22:06:42.846Z,4.08
2023-03-06T22:10:05.964Z,4.17
2023-03-06T22:13:29.878Z,3.83
2023-03-06T22:16:52.697Z,3.91
2023-03-06T22:20:15.650Z,3.85
2023-03-06T22:23:38.362Z,4.04
2023-03-06T22:27:01.008Z,4.18
2023-03-06T22:30:24.869Z,4.14
2023-03-06T22:33:47.764Z,4.56
2023-03-06T22:37:12.987Z,4.30
2023-03-06T22:40:35.863Z,4.26
2023-03-06T22:43:58.758Z,3.86
2023-03-06T22:47:23.087Z,3.67
2023-03-06T22:50:45.629Z,3.40
2023-03-06T22:54:08.897Z,3.73
2023-03-06T22:57:31.098Z,3.85
2023-03-06T23:00:54.117Z,3.76
2023-03-06T23:04:18.335Z,3.92
2023-03-06T23:07:41.472Z,3.87
2023-03-06T23:11:04.045Z,3.42
2023-03-06T23:14:49.573Z,4.10
2023-03-06T23:18:30.985Z,3.89
2023-03-06T23:22:14.410Z,3.85
2023-03-06T23:25:59.777Z,4.31
2023-03-06T23:29:22.545Z,4.02
2023-03-06T23:32:46.103Z,4.10
2023-03-06T23:36:10.127Z,3.78
2023-03-06T23:39:33.733Z,3.40
2023-03-06T23:42:56.671Z,3.52
2023-03-06T23:46:19.099Z,3.28
2023-03-06T23:49:42.109Z,3.38
2023-03-06T23:53:04.448Z,3.38
2023-03-06T23:56:29.528Z,3.42
2023-03-06T23:59:51.776Z,3.75
